createdAt,value
2022-10-13T00:00:46.932Z,10.10
2022-10-13T00:03:13.876Z,10.00
2022-10-13T00:05:44.230Z,10.00
2022-10-13T00:08:11.891Z,10.00
2022-10-13T00:10:45.829Z,10.00
2022-10-13T00:13:13.040Z,10.00
2022-10-13T00:15:40.900Z,10.00
2022-10-13T00:18:07.712Z,10.00
2022-10-13T00:20:34.664Z,10.00
2022-10-13T00:23:01.479Z,10.00
2022-10-13T00:25:28.247Z,9.90
2022-10-13T00:27:54.999Z,9.90
2022-10-13T00:30:27.197Z,10.00
2022-10-13T00:32:53.946Z,9.90
2022-10-13T00:35:20.647Z,10.00
2022-10-13T00:37:47.385Z,9.90
2022-10-13T00:40:14.114Z,10.00
2022-10-13T00:42:41.295Z,9.90
2022-10-13T00:45:13.875Z,9.90
2022-10-13T00:47:42.264Z,9.90
2022-10-13T00:50:13.321Z,9.90
2022-10-13T00:52:41.402Z,9.90
2022-10-13T00:55:09.933Z,9.90
2022-10-13T00:57:38.760Z,10.00
2022-10-13T01:00:05.787Z,9.90
2022-10-13T01:02:34.887Z,9.90
2022-10-13T01:05:04.018Z,9.90
2022-10-13T01:07:30.968Z,9.90
2022-10-13T01:10:00.923Z,9.90
2022-10-13T01:12:27.761Z,9.90
2022-10-13T01:14:57.209Z,9.90
2022-10-13T01:17:23.924Z,9.90
2022-10-13T01:20:09.413Z,9.90
2022-10-13T01:22:38.921Z,9.90
2022-10-13T01:25:31.774Z,9.90
2022-10-13T01:28:21.598Z,9.90
2022-10-13T01:31:08.641Z,9.90
2022-10-13T01:33:35.489Z,9.90
2022-10-13T01:36:08.190Z,9.90
2022-10-13T01:38:39.215Z,9.90
2022-10-13T01:41:24.816Z,9.80
2022-10-13T01:44:08.405Z,9.90
2022-10-13T01:46:37.662Z,9.90
2022-10-13T01:49:10.293Z,9.90
2022-10-13T01:51:37.691Z,9.90
2022-10-13T01:54:04.430Z,9.90
2022-10-13T01:56:31.365Z,9.90
2022-10-13T01:58:59.697Z,9.90
2022-10-13T02:01:32.632Z,9.80
2022-10-13T02:04:17.771Z,9.90
2022-10-13T02:06:47.834Z,9.90
2022-10-13T02:09:19.064Z,9.90
2022-10-13T02:11:54.195Z,9.90
2022-10-13T02:14:24.119Z,9.90
2022-10-13T02:16:51.371Z,9.90
2022-10-13T02:19:18.781Z,9.90
2022-10-13T02:21:46.417Z,9.90
2022-10-13T02:24:13.761Z,9.90
2022-10-13T02:26:41.497Z,9.90
2022-10-13T02:29:12.297Z,10.00
2022-10-13T02:31:39.420Z,9.90
2022-10-13T02:34:06.150Z,9.90
2022-10-13T02:36:33.035Z,9.90
2022-10-13T02:38:59.853Z,9.90
2022-10-13T02:41:26.568Z,9.90
2022-10-13T02:43:53.303Z,9.90
2022-10-13T02:46:23.206Z,9.90
2022-10-13T02:48:49.959Z,9.80
2022-10-13T02:51:16.711Z,9.90
2022-10-13T02:53:43.425Z,9.90
2022-10-13T02:56:10.193Z,9.90
2022-10-13T02:58:37.172Z,9.90
2022-10-13T03:01:07.446Z,9.90
2022-10-13T03:03:34.329Z,9.90
2022-10-13T03:06:01.094Z,9.90
2022-10-13T03:08:28.730Z,9.90
2022-10-13T03:10:55.451Z,9.80
2022-10-13T03:13:22.211Z,9.80
2022-10-13T03:15:48.993Z,9.80
2022-10-13T03:18:15.846Z,9.80
2022-10-13T03:20:43.052Z,9.80
2022-10-13T03:23:09.821Z,9.70
2022-10-13T03:25:36.600Z,9.70
2022-10-13T03:28:04.171Z,9.70
2022-10-13T03:30:30.903Z,9.80
2022-10-13T03:32:57.618Z,9.80
2022-10-13T03:35:24.492Z,9.80
2022-10-13T03:37:51.217Z,9.70
2022-10-13T03:40:17.953Z,9.70
2022-10-13T03:42:44.707Z,9.70
2022-10-13T03:45:11.571Z,9.70
2022-10-13T03:47:38.524Z,9.70
2022-10-13T03:50:05.667Z,9.70
2022-10-13T03:52:32.428Z,9.70
2022-10-13T03:54:59.199Z,9.70
2022-10-13T03:57:26.047Z,9.60
2022-10-13T03:59:52.820Z,9.70
2022-10-13T04:02:19.784Z,9.60
2022-10-13T04:04:48.796Z,9.60
2022-10-13T04:07:15.555Z,9.60
2022-10-13T04:09:42.259Z,9.60
2022-10-13T04:12:08.988Z,9.60
2022-10-13T04:14:35.709Z,9.60
2022-10-13T04:17:08.104Z,9.60
2022-10-13T04:19:34.827Z,9.60
2022-10-13T04:22:05.403Z,9.60
2022-10-13T04:24:32.137Z,9.60
2022-10-13T04:26:58.846Z,9.60
2022-10-13T04:29:25.546Z,9.60
2022-10-13T04:31:53.529Z,9.60
2022-10-13T04:34:20.769Z,9.60
2022-10-13T04:36:50.057Z,9.60
2022-10-13T04:39:16.783Z,9.60
2022-10-13T04:41:44.262Z,9.60
2022-10-13T04:44:10.970Z,9.60
2022-10-13T04:46:37.699Z,9.60
2022-10-13T04:49:04.855Z,9.70
2022-10-13T04:51:32.540Z,9.70
2022-10-13T04:54:01.110Z,9.70
2022-10-13T04:56:28.564Z,9.70
2022-10-13T04:58:59.992Z,9.70
2022-10-13T05:01:27.121Z,9.70
2022-10-13T05:03:54.688Z,9.70
2022-10-13T05:06:23.198Z,9.70
2022-10-13T05:08:55.995Z,9.70
2022-10-13T05:11:24.225Z,9.70
2022-10-13T05:13:51.017Z,9.70
2022-10-13T05:16:18.882Z,9.70
2022-10-13T05:18:46.035Z,9.80
2022-10-13T05:21:14.051Z,9.80
2022-10-13T05:23:41.799Z,9.70
2022-10-13T05:26:10.037Z,9.70
2022-10-13T05:28:37.317Z,9.70
2022-10-13T05:31:11.167Z,9.80
2022-10-13T05:33:38.009Z,9.70
2022-10-13T05:36:08.164Z,9.80
2022-10-13T05:38:37.473Z,9.70
2022-10-13T05:41:08.514Z,9.80
2022-10-13T05:43:36.177Z,9.80
2022-10-13T05:46:03.412Z,9.80
2022-10-13T05:48:30.709Z,9.80
2022-10-13T05:50:59.350Z,9.80
2022-10-13T05:53:28.185Z,9.80
2022-10-13T05:55:56.341Z,9.90
2022-10-13T05:58:23.282Z,9.90
2022-10-13T06:00:50.738Z,9.90
2022-10-13T06:03:19.154Z,9.90
2022-10-13T06:05:47.609Z,9.90
2022-10-13T06:08:15.063Z,10.00
2022-10-13T06:10:43.352Z,10.00
2022-10-13T06:13:10.173Z,10.00
2022-10-13T06:15:36.919Z,10.10
2022-10-13T06:18:07.301Z,10.10
2022-10-13T06:20:34.024Z,10.10
2022-10-13T06:23:00.750Z,10.20
2022-10-13T06:25:29.123Z,10.20
2022-10-13T06:28:00.521Z,10.20
2022-10-13T06:30:27.476Z,10.30
2022-10-13T06:32:58.319Z,10.30
2022-10-13T06:35:25.080Z,10.30
2022-10-13T06:37:53.164Z,10.40
2022-10-13T06:40:20.061Z,10.40
2022-10-13T06:42:50.432Z,10.40
2022-10-13T06:45:17.797Z,10.40
2022-10-13T06:47:44.677Z,10.40
2022-10-13T06:50:12.035Z,10.50
2022-10-13T06:52:38.829Z,10.50
2022-10-13T06:55:05.727Z,10.50
2022-10-13T06:57:33.177Z,10.50
2022-10-13T07:00:01.863Z,10.60
2022-10-13T07:02:28.669Z,10.60
2022-10-13T07:04:55.647Z,10.60
2022-10-13T07:07:22.526Z,10.70
2022-10-13T07:09:49.706Z,10.70
2022-10-13T07:12:16.917Z,10.70
2022-10-13T07:14:44.052Z,10.70
2022-10-13T07:17:11.019Z,10.80
2022-10-13T07:19:37.774Z,10.80
2022-10-13T07:22:04.523Z,10.90
2022-10-13T07:24:31.335Z,10.90
2022-10-13T07:26:58.044Z,10.90
2022-10-13T07:29:24.792Z,10.90
2022-10-13T07:31:51.549Z,11.00
2022-10-13T07:34:18.294Z,11.00
2022-10-13T07:36:45.052Z,11.10
2022-10-13T07:39:11.940Z,11.10
2022-10-13T07:41:38.766Z,11.20
2022-10-13T07:44:05.485Z,11.20
2022-10-13T07:46:32.222Z,11.20
2022-10-13T07:48:58.957Z,11.20
2022-10-13T07:51:25.813Z,11.20
2022-10-13T07:53:52.543Z,11.30
2022-10-13T07:56:19.288Z,11.30
2022-10-13T07:58:46.823Z,11.40
2022-10-13T08:01:14.202Z,11.40
2022-10-13T08:03:44.204Z,11.40
2022-10-13T08:06:16.906Z,11.50
2022-10-13T08:08:43.701Z,11.50
2022-10-13T08:11:16.417Z,11.50
2022-10-13T08:13:50.326Z,11.60
2022-10-13T08:16:22.989Z,11.60
2022-10-13T08:18:49.837Z,11.60
2022-10-13T08:24:07.793Z,11.60
2022-10-13T08:26:34.593Z,11.60
2022-10-13T08:34:19.763Z,11.60
2022-10-13T08:36:46.516Z,11.70
2022-10-13T08:39:14.054Z,11.70
2022-10-13T08:41:43.786Z,11.80
2022-10-13T08:47:26.257Z,11.80
2022-10-13T08:49:59.125Z,11.80
2022-10-13T08:52:27.932Z,12.00
2022-10-13T08:54:55.512Z,12.00
2022-10-13T08:57:23.506Z,12.00
2022-10-13T08:59:52.231Z,12.10
2022-10-13T09:02:23.647Z,12.10
2022-10-13T09:04:52.267Z,12.20
2022-10-13T09:07:24.679Z,12.30
2022-10-13T09:09:52.279Z,12.30
2022-10-13T09:12:29.577Z,12.40
2022-10-13T09:15:05.947Z,12.50
2022-10-13T09:17:33.418Z,12.60
2022-10-13T09:20:01.703Z,12.70
2022-10-13T09:22:31.306Z,12.70
2022-10-13T09:25:07.284Z,12.80
2022-10-13T09:27:43.539Z,12.90
2022-10-13T09:30:22.816Z,12.90
2022-10-13T09:32:49.878Z,12.90
2022-10-13T09:35:25.657Z,12.90
2022-10-13T09:38:02.918Z,12.90
2022-10-13T09:40:32.563Z,12.90
2022-10-13T09:43:01.199Z,12.90
2022-10-13T09:45:30.428Z,12.90
2022-10-13T09:48:03.514Z,12.90
2022-10-13T09:50:31.995Z,12.90
2022-10-13T09:53:17.520Z,13.00
2022-10-13T09:55:48.558Z,13.00
2022-10-13T09:58:23.045Z,13.10
2022-10-13T10:00:51.024Z,13.10
2022-10-13T10:03:20.098Z,13.10
2022-10-13T10:05:56.105Z,13.10
2022-10-13T10:08:38.829Z,13.20
2022-10-13T10:11:13.496Z,13.10
2022-10-13T10:13:40.263Z,13.00
2022-10-13T10:16:07.140Z,13.00
2022-10-13T10:18:44.503Z,13.00
2022-10-13T10:21:17.195Z,13.00
2022-10-13T10:24:16.427Z,12.90
2022-10-13T10:26:43.158Z,12.90
2022-10-13T10:29:23.894Z,12.90
2022-10-13T10:31:58.080Z,12.90
2022-10-13T10:34:34.943Z,12.90
2022-10-13T10:37:21.379Z,12.80
2022-10-13T10:39:58.566Z,12.80
2022-10-13T10:42:35.734Z,12.80
2022-10-13T10:45:04.505Z,12.80
2022-10-13T10:47:40.758Z,12.80
2022-10-13T10:50:08.421Z,12.70
2022-10-13T10:52:53.742Z,12.70
2022-10-13T10:55:43.465Z,12.70
2022-10-13T10:58:14.403Z,12.70
2022-10-13T11:00:54.083Z,12.80
2022-10-13T11:03:32.069Z,12.80
2022-10-13T11:06:02.920Z,12.80
2022-10-13T11:08:49.875Z,12.70
2022-10-13T11:11:29.334Z,12.70
2022-10-13T11:14:01.016Z,12.70
2022-10-13T11:16:30.615Z,12.70
2022-10-13T11:19:16.181Z,12.80
2022-10-13T11:21:55.016Z,12.80
2022-10-13T11:24:33.897Z,12.80
2022-10-13T11:27:15.875Z,12.90
2022-10-13T11:29:58.021Z,12.90
2022-10-13T11:32:28.080Z,13.00
2022-10-13T11:35:00.602Z,13.10
2022-10-13T11:37:35.735Z,13.20
2022-10-13T11:40:04.640Z,13.30
2022-10-13T11:42:43.377Z,13.30
2022-10-13T11:45:22.259Z,13.30
2022-10-13T11:50:46.596Z,13.30
2022-10-13T11:53:17.719Z,13.40
2022-10-13T11:55:52.180Z,13.40
2022-10-13T11:58:23.819Z,13.40
2022-10-13T12:00:53.549Z,13.50
2022-10-13T12:03:40.551Z,13.50
2022-10-13T12:06:32.123Z,13.50
2022-10-13T12:09:00.541Z,13.60
2022-10-13T12:11:37.783Z,13.70
2022-10-13T12:14:07.648Z,13.70
2022-10-13T12:16:34.597Z,13.70
2022-10-13T12:19:19.990Z,13.70
2022-10-13T12:21:54.216Z,13.80
2022-10-13T12:24:25.305Z,13.80
2022-10-13T12:26:52.636Z,13.80
2022-10-13T12:29:21.350Z,13.80
2022-10-13T12:31:49.671Z,13.80
2022-10-13T12:34:27.574Z,13.80
2022-10-13T12:37:05.613Z,13.80
2022-10-13T12:39:33.718Z,13.80
2022-10-13T12:42:02.229Z,13.90
2022-10-13T12:44:30.732Z,13.90
2022-10-13T12:47:02.107Z,13.90
2022-10-13T12:49:33.160Z,13.90
2022-10-13T12:52:08.928Z,13.90
2022-10-13T12:54:40.075Z,13.90
2022-10-13T12:57:18.710Z,13.80
2022-10-13T12:59:45.553Z,13.70
2022-10-13T13:02:32.074Z,13.70
2022-10-13T13:04:58.976Z,13.80
2022-10-13T13:07:28.938Z,13.80
2022-10-13T13:10:07.711Z,14.00
2022-10-13T13:12:37.673Z,14.10
2022-10-13T13:15:25.592Z,14.20
2022-10-13T13:17:58.260Z,14.30
2022-10-13T13:20:30.110Z,14.20
2022-10-13T13:22:56.847Z,14.30
2022-10-13T13:25:23.874Z,14.20
2022-10-13T13:27:50.858Z,14.30
2022-10-13T13:30:19.481Z,14.30
2022-10-13T13:32:46.561Z,14.30
2022-10-13T13:35:13.498Z,14.20
2022-10-13T13:37:41.804Z,14.10
2022-10-13T13:40:15.029Z,14.10
2022-10-13T13:42:41.829Z,14.20
2022-10-13T13:45:12.340Z,14.30
2022-10-13T13:47:39.136Z,14.30
2022-10-13T13:50:10.773Z,14.30
2022-10-13T13:52:41.715Z,14.40
2022-10-13T13:55:09.510Z,14.20
2022-10-13T13:57:36.268Z,14.10
2022-10-13T14:00:04.878Z,14.00
2022-10-13T14:02:38.803Z,14.00
2022-10-13T14:05:05.857Z,14.00
2022-10-13T14:07:32.556Z,13.90
2022-10-13T14:10:02.013Z,13.80
2022-10-13T14:12:33.024Z,13.70
2022-10-13T14:14:59.897Z,13.70
2022-10-13T14:17:27.173Z,13.60
2022-10-13T14:19:54.605Z,13.50
2022-10-13T14:22:21.812Z,13.50
2022-10-13T14:24:48.949Z,13.40
2022-10-13T14:27:15.706Z,13.30
2022-10-13T14:29:42.497Z,13.30
2022-10-13T14:32:09.222Z,13.20
2022-10-13T14:34:35.969Z,13.20
2022-10-13T14:37:02.717Z,13.10
2022-10-13T14:39:29.750Z,13.00
2022-10-13T14:41:56.500Z,13.00
2022-10-13T14:44:23.262Z,13.00
2022-10-13T14:46:49.989Z,12.90
2022-10-13T14:49:16.784Z,12.80
2022-10-13T14:51:45.064Z,12.70
2022-10-13T14:54:11.783Z,12.70
2022-10-13T14:56:38.598Z,12.70
2022-10-13T14:59:07.056Z,12.60
2022-10-13T15:01:36.513Z,12.60
2022-10-13T15:04:03.542Z,12.60
2022-10-13T15:06:30.794Z,12.50
2022-10-13T15:08:57.873Z,12.40
2022-10-13T15:11:25.763Z,12.30
2022-10-13T15:13:52.587Z,12.30
2022-10-13T15:16:19.344Z,12.20
2022-10-13T15:18:46.140Z,12.20
2022-10-13T15:21:12.893Z,12.10
2022-10-13T15:23:39.655Z,12.10
2022-10-13T15:26:06.493Z,12.00
2022-10-13T15:28:38.270Z,12.00
2022-10-13T15:31:05.893Z,11.90
2022-10-13T15:33:32.776Z,11.80
2022-10-13T15:35:59.610Z,11.80
2022-10-13T15:38:26.766Z,11.80
2022-10-13T15:40:58.385Z,11.80
2022-10-13T15:43:25.118Z,11.70
2022-10-13T15:45:56.198Z,11.70
2022-10-13T15:48:23.357Z,11.60
2022-10-13T15:50:50.112Z,11.50
2022-10-13T15:53:16.899Z,11.50
2022-10-13T15:55:43.741Z,11.40
2022-10-13T15:58:13.689Z,11.40
2022-10-13T16:00:41.173Z,11.30
2022-10-13T16:03:11.252Z,11.30
2022-10-13T16:05:40.345Z,11.20
2022-10-13T16:08:07.057Z,11.20
2022-10-13T16:10:33.808Z,11.20
2022-10-13T16:13:00.527Z,11.10
2022-10-13T16:15:29.184Z,11.10
2022-10-13T16:17:55.944Z,11.10
2022-10-13T16:20:22.656Z,11.00
2022-10-13T16:22:49.413Z,11.00
2022-10-13T16:25:16.238Z,11.00
2022-10-13T16:27:44.622Z,11.00
2022-10-13T16:30:12.094Z,11.00
2022-10-13T16:32:39.474Z,11.00
2022-10-13T16:35:06.956Z,11.00
2022-10-13T16:37:33.771Z,11.00
2022-10-13T16:40:00.502Z,10.90
2022-10-13T16:42:27.288Z,10.90
2022-10-13T16:44:54.085Z,10.90
2022-10-13T16:47:21.265Z,10.90
2022-10-13T16:49:48.349Z,10.80
2022-10-13T16:52:16.446Z,10.80
2022-10-13T16:54:43.867Z,10.80
2022-10-13T16:57:10.600Z,10.80
2022-10-13T16:59:37.351Z,10.70
2022-10-13T17:02:04.146Z,10.70
2022-10-13T17:04:31.111Z,10.80
2022-10-13T17:06:57.930Z,10.70
2022-10-13T17:09:24.733Z,10.70
2022-10-13T17:11:51.478Z,10.70
2022-10-13T17:14:18.245Z,10.70
2022-10-13T17:16:45.228Z,10.70
2022-10-13T17:19:11.980Z,10.70
2022-10-13T17:21:38.754Z,10.70
2022-10-13T17:24:08.483Z,10.60
2022-10-13T17:26:35.218Z,10.60
2022-10-13T17:29:02.195Z,10.60
2022-10-13T17:31:28.971Z,10.60
2022-10-13T17:33:55.689Z,10.60
2022-10-13T17:36:31.645Z,10.60
2022-10-13T17:39:05.904Z,10.60
2022-10-13T17:41:33.193Z,10.60
2022-10-13T17:44:00.147Z,10.60
2022-10-13T17:46:37.322Z,10.60
2022-10-13T17:49:05.297Z,10.60
2022-10-13T17:51:31.999Z,10.60
2022-10-13T17:53:59.581Z,10.60
2022-10-13T17:56:26.519Z,10.60
2022-10-13T17:58:53.557Z,10.60
2022-10-13T18:01:21.833Z,10.60
2022-10-13T18:03:52.352Z,10.60
2022-10-13T18:06:22.404Z,10.60
2022-10-13T18:08:50.760Z,10.60
2022-10-13T18:11:18.931Z,10.60
2022-10-13T18:13:45.853Z,10.60
2022-10-13T18:16:15.026Z,10.70
2022-10-13T18:18:44.387Z,10.60
2022-10-13T18:21:12.549Z,10.70
2022-10-13T18:23:39.608Z,10.70
2022-10-13T18:26:07.651Z,10.70
2022-10-13T18:28:35.658Z,10.70
2022-10-13T18:31:09.853Z,10.70
2022-10-13T18:33:36.761Z,10.70
2022-10-13T18:36:13.893Z,10.70
2022-10-13T18:38:40.630Z,10.70
2022-10-13T18:41:07.507Z,10.70
2022-10-13T18:43:34.241Z,10.70
2022-10-13T18:46:01.510Z,10.60
2022-10-13T18:48:28.342Z,10.60
2022-10-13T18:50:55.096Z,10.60
2022-10-13T18:53:22.214Z,10.60
2022-10-13T18:55:49.005Z,10.60
2022-10-13T18:58:15.930Z,10.60
2022-10-13T19:00:42.665Z,10.60
2022-10-13T19:03:09.560Z,10.60
2022-10-13T19:05:39.654Z,10.60
2022-10-13T19:08:09.419Z,10.50
2022-10-13T19:10:36.493Z,10.60
2022-10-13T19:13:03.543Z,10.60
2022-10-13T19:15:30.302Z,10.50
2022-10-13T19:17:59.541Z,10.50
2022-10-13T19:20:26.373Z,10.50
2022-10-13T19:22:53.277Z,10.50
2022-10-13T19:25:20.018Z,10.50
2022-10-13T19:27:46.888Z,10.50
2022-10-13T19:30:14.377Z,10.50
2022-10-13T19:32:41.140Z,10.40
2022-10-13T19:35:07.987Z,10.40
2022-10-13T19:37:35.163Z,10.50
2022-10-13T19:40:02.494Z,10.40
2022-10-13T19:42:29.739Z,10.40
2022-10-13T19:44:58.111Z,10.40
2022-10-13T19:47:24.856Z,10.40
2022-10-13T19:49:51.588Z,10.40
2022-10-13T19:52:18.354Z,10.40
2022-10-13T19:54:45.071Z,10.40
2022-10-13T19:57:11.820Z,10.40
2022-10-13T19:59:38.628Z,10.30
2022-10-13T20:02:05.473Z,10.40
2022-10-13T20:04:32.217Z,10.40
2022-10-13T20:06:59.101Z,10.40
2022-10-13T20:09:25.873Z,10.40
2022-10-13T20:11:52.897Z,10.40
2022-10-13T20:14:19.681Z,10.40
2022-10-13T20:16:46.543Z,10.40
2022-10-13T20:19:14.815Z,10.40
2022-10-13T20:21:43.109Z,10.40
2022-10-13T20:24:11.343Z,10.40
2022-10-13T20:26:39.921Z,10.40
2022-10-13T20:29:06.849Z,10.40
2022-10-13T20:31:33.673Z,10.40
2022-10-13T20:34:02.263Z,10.40
2022-10-13T20:36:32.657Z,10.40
2022-10-13T20:39:03.418Z,10.40
2022-10-13T20:41:31.112Z,10.50
2022-10-13T20:43:59.189Z,10.50
2022-10-13T20:46:26.274Z,10.50
2022-10-13T20:51:41.292Z,10.60
2022-10-13T20:54:08.380Z,10.60
2022-10-13T20:56:35.721Z,10.60
2022-10-13T20:59:03.565Z,10.60
2022-10-13T21:01:30.298Z,10.60
2022-10-13T21:03:57.294Z,10.60
2022-10-13T21:06:24.810Z,10.60
2022-10-13T21:08:52.248Z,10.60
2022-10-13T21:11:20.432Z,10.60
2022-10-13T21:13:48.029Z,10.60
2022-10-13T21:16:16.058Z,10.60
2022-10-13T21:18:49.653Z,10.60
2022-10-13T21:21:17.916Z,10.60
2022-10-13T21:23:46.066Z,10.60
2022-10-13T21:26:20.414Z,10.60
2022-10-13T21:28:48.352Z,10.60
2022-10-13T21:31:15.617Z,10.60
2022-10-13T21:33:42.952Z,10.60
2022-10-13T21:36:10.939Z,10.60
2022-10-13T21:38:39.539Z,10.60
2022-10-13T21:41:10.384Z,10.60
2022-10-13T21:43:37.312Z,10.60
2022-10-13T21:46:23.252Z,10.60
2022-10-13T21:48:53.766Z,10.60
2022-10-13T21:51:24.681Z,10.60
2022-10-13T21:53:52.608Z,10.60
2022-10-13T21:56:19.476Z,10.60
2022-10-13T21:58:46.555Z,10.70
2022-10-13T22:01:13.425Z,10.70
2022-10-13T22:03:41.626Z,10.70
2022-10-13T22:06:11.418Z,10.70
2022-10-13T22:08:42.355Z,10.70
2022-10-13T22:11:14.605Z,10.70
2022-10-13T22:13:41.537Z,10.60
2022-10-13T22:16:16.169Z,10.70
2022-10-13T22:18:44.179Z,10.70
2022-10-13T22:21:12.929Z,10.70
2022-10-13T22:23:39.723Z,10.60
2022-10-13T22:26:07.276Z,10.70
2022-10-13T22:28:37.251Z,10.70
2022-10-13T22:31:08.323Z,10.70
2022-10-13T22:33:35.658Z,10.70
2022-10-13T22:36:09.318Z,10.70
2022-10-13T22:38:36.093Z,10.80
2022-10-13T22:41:07.185Z,10.80
2022-10-13T22:43:34.518Z,10.80
2022-10-13T22:46:14.854Z,10.80
2022-10-13T22:48:41.847Z,10.80
2022-10-13T22:51:14.934Z,10.80
2022-10-13T22:53:41.753Z,10.80
2022-10-13T22:56:09.225Z,10.80
2022-10-13T22:58:36.857Z,10.90
2022-10-13T23:01:08.649Z,10.90
2022-10-13T23:03:36.161Z,10.90
2022-10-13T23:06:03.590Z,10.90
2022-10-13T23:08:30.758Z,10.80
2022-10-13T23:10:57.973Z,10.90
2022-10-13T23:13:24.762Z,10.90
2022-10-13T23:15:52.838Z,10.90
2022-10-13T23:18:24.491Z,10.90
2022-10-13T23:20:56.525Z,10.90
2022-10-13T23:23:25.731Z,10.90
2022-10-13T23:25:52.458Z,10.90
2022-10-13T23:28:19.248Z,10.90
2022-10-13T23:30:46.085Z,10.90
2022-10-13T23:33:12.870Z,10.90
2022-10-13T23:35:39.806Z,10.90
2022-10-13T23:38:06.498Z,10.90
2022-10-13T23:40:34.836Z,10.90
2022-10-13T23:43:01.610Z,10.90
2022-10-13T23:45:28.284Z,10.90
2022-10-13T23:47:55.014Z,10.90
2022-10-13T23:50:21.913Z,10.90
2022-10-13T23:52:48.665Z,10.90
2022-10-13T23:55:16.622Z,10.90
2022-10-13T23:57:43.329Z,10.90
